sensor_id;sensor_type;location;lat;lon;timestamp;P1;durP1;ratioP1;P2;durP2;ratioP2
5682;SDS011;2864;49.220;8.654;2023-08-06T00:01:48;5.17;;;3.70;;
5682;SDS011;2864;49.220;8.654;2023-08-06T00:04:14;4.40;;;3.73;;
5682;SDS011;2864;49.220;8.654;2023-08-06T00:06:39;6.57;;;3.87;;
5682;SDS011;2864;49.220;8.654;2023-08-06T00:09:05;4.60;;;4.03;;
5682;SDS011;2864;49.220;8.654;2023-08-06T00:11:30;4.13;;;3.83;;
5682;SDS011;2864;49.220;8.654;2023-08-06T00:13:56;6.10;;;4.27;;
5682;SDS011;2864;49.220;8.654;2023-08-06T00:16:22;5.20;;;4.00;;
5682;SDS011;2864;49.220;8.654;2023-08-06T00:18:48;4.03;;;3.63;;
5682;SDS011;2864;49.220;8.654;2023-08-06T00:21:13;6.90;;;4.47;;
5682;SDS011;2864;49.220;8.654;2023-08-06T00:23:39;5.57;;;3.90;;
5682;SDS011;2864;49.220;8.654;2023-08-06T00:26:05;4.77;;;4.27;;
5682;SDS011;2864;49.220;8.654;2023-08-06T00:28:31;4.33;;;3.70;;
5682;SDS011;2864;49.220;8.654;2023-08-06T00:30:56;5.33;;;4.33;;
5682;SDS011;2864;49.220;8.654;2023-08-06T00:33:22;6.50;;;4.20;;
5682;SDS011;2864;49.220;8.654;2023-08-06T00:35:48;5.43;;;4.10;;
5682;SDS011;2864;49.220;8.654;2023-08-06T00:38:14;5.97;;;4.23;;
5682;SDS011;2864;49.220;8.654;2023-08-06T00:40:40;5.87;;;4.00;;
5682;SDS011;2864;49.220;8.654;2023-08-06T00:43:05;5.90;;;3.90;;
5682;SDS011;2864;49.220;8.654;2023-08-06T00:45:33;4.97;;;4.17;;
5682;SDS011;2864;49.220;8.654;2023-08-06T00:48:00;4.30;;;3.90;;
5682;SDS011;2864;49.220;8.654;2023-08-06T00:50:27;7.53;;;3.93;;
5682;SDS011;2864;49.220;8.654;2023-08-06T00:52:53;7.23;;;4.30;;
5682;SDS011;2864;49.220;8.654;2023-08-06T00:55:19;3.80;;;3.40;;
5682;SDS011;2864;49.220;8.654;2023-08-06T00:57:44;5.20;;;4.13;;
5682;SDS011;2864;49.220;8.654;2023-08-06T01:00:10;4.37;;;3.97;;
5682;SDS011;2864;49.220;8.654;2023-08-06T01:02:37;4.60;;;4.07;;
5682;SDS011;2864;49.220;8.654;2023-08-06T01:05:03;4.43;;;4.03;;
5682;SDS011;2864;49.220;8.654;2023-08-06T01:12:52;6.20;;;3.70;;
5682;SDS011;2864;49.220;8.654;2023-08-06T01:15:22;4.57;;;3.43;;
5682;SDS011;2864;49.220;8.654;2023-08-06T01:17:52;3.60;;;3.30;;
5682;SDS011;2864;49.220;8.654;2023-08-06T01:20:19;4.60;;;3.53;;
5682;SDS011;2864;49.220;8.654;2023-08-06T01:22:44;4.67;;;3.40;;
5682;SDS011;2864;49.220;8.654;2023-08-06T01:25:10;3.67;;;3.30;;
5682;SDS011;2864;49.220;8.654;2023-08-06T01:27:47;5.33;;;3.33;;
5682;SDS011;2864;49.220;8.654;2023-08-06T01:30:21;4.00;;;3.40;;
5682;SDS011;2864;49.220;8.654;2023-08-06T01:32:56;3.90;;;3.27;;
5682;SDS011;2864;49.220;8.654;2023-08-06T01:35:25;4.80;;;3.13;;
5682;SDS011;2864;49.220;8.654;2023-08-06T01:37:52;4.67;;;3.30;;
5682;SDS011;2864;49.220;8.654;2023-08-06T01:40:18;3.60;;;3.30;;
5682;SDS011;2864;49.220;8.654;2023-08-06T01:42:43;3.77;;;3.33;;
5682;SDS011;2864;49.220;8.654;2023-08-06T01:45:09;3.63;;;3.20;;
5682;SDS011;2864;49.220;8.654;2023-08-06T01:47:35;3.20;;;2.83;;
5682;SDS011;2864;49.220;8.654;2023-08-06T01:50:01;3.50;;;2.90;;
5682;SDS011;2864;49.220;8.654;2023-08-06T01:52:27;4.17;;;3.40;;
5682;SDS011;2864;49.220;8.654;2023-08-06T01:54:53;3.50;;;2.90;;
5682;SDS011;2864;49.220;8.654;2023-08-06T01:57:19;5.60;;;3.13;;
5682;SDS011;2864;49.220;8.654;2023-08-06T01:59:44;5.37;;;3.30;;
5682;SDS011;2864;49.220;8.654;2023-08-06T02:02:10;4.87;;;3.00;;
5682;SDS011;2864;49.220;8.654;2023-08-06T02:04:35;3.87;;;2.80;;
5682;SDS011;2864;49.220;8.654;2023-08-06T02:07:01;4.20;;;2.87;;
5682;SDS011;2864;49.220;8.654;2023-08-06T02:09:27;6.10;;;2.87;;
5682;SDS011;2864;49.220;8.654;2023-08-06T02:11:52;3.00;;;2.70;;
5682;SDS011;2864;49.220;8.654;2023-08-06T02:14:18;3.20;;;2.70;;
5682;SDS011;2864;49.220;8.654;2023-08-06T02:16:43;4.63;;;2.40;;
5682;SDS011;2864;49.220;8.654;2023-08-06T02:19:09;4.50;;;2.77;;
5682;SDS011;2864;49.220;8.654;2023-08-06T02:21:34;3.83;;;2.37;;
5682;SDS011;2864;49.220;8.654;2023-08-06T02:24:00;3.70;;;2.50;;
5682;SDS011;2864;49.220;8.654;2023-08-06T02:26:25;4.20;;;2.43;;
5682;SDS011;2864;49.220;8.654;2023-08-06T02:28:51;5.27;;;2.70;;
5682;SDS011;2864;49.220;8.654;2023-08-06T02:31:17;3.77;;;2.70;;
5682;SDS011;2864;49.220;8.654;2023-08-06T02:33:42;3.57;;;2.67;;
5682;SDS011;2864;49.220;8.654;2023-08-06T02:36:08;4.67;;;2.30;;
5682;SDS011;2864;49.220;8.654;2023-08-06T02:38:33;2.80;;;2.40;;
5682;SDS011;2864;49.220;8.654;2023-08-06T02:40:59;2.97;;;2.60;;
5682;SDS011;2864;49.220;8.654;2023-08-06T02:43:27;3.43;;;2.47;;
5682;SDS011;2864;49.220;8.654;2023-08-06T02:45:56;4.37;;;2.70;;
5682;SDS011;2864;49.220;8.654;2023-08-06T02:48:22;5.43;;;2.50;;
5682;SDS011;2864;49.220;8.654;2023-08-06T02:50:48;5.00;;;2.50;;
5682;SDS011;2864;49.220;8.654;2023-08-06T02:53:14;3.53;;;2.60;;
5682;SDS011;2864;49.220;8.654;2023-08-06T02:55:44;4.00;;;2.33;;
5682;SDS011;2864;49.220;8.654;2023-08-06T02:58:12;3.60;;;2.50;;
5682;SDS011;2864;49.220;8.654;2023-08-06T03:00:38;4.60;;;2.77;;
5682;SDS011;2864;49.220;8.654;2023-08-06T03:03:04;3.43;;;2.80;;
5682;SDS011;2864;49.220;8.654;2023-08-06T03:05:29;4.80;;;2.97;;
5682;SDS011;2864;49.220;8.654;2023-08-06T03:07:55;3.30;;;2.83;;
5682;SDS011;2864;49.220;8.654;2023-08-06T03:10:20;4.40;;;2.70;;
5682;SDS011;2864;49.220;8.654;2023-08-06T03:12:46;4.17;;;3.07;;
5682;SDS011;2864;49.220;8.654;2023-08-06T03:15:11;5.23;;;2.83;;
5682;SDS011;2864;49.220;8.654;2023-08-06T03:17:37;4.50;;;3.00;;
5682;SDS011;2864;49.220;8.654;2023-08-06T03:20:03;4.43;;;2.97;;
5682;SDS011;2864;49.220;8.654;2023-08-06T03:22:29;2.73;;;2.47;;
5682;SDS011;2864;49.220;8.654;2023-08-06T03:24:55;4.00;;;2.53;;
5682;SDS011;2864;49.220;8.654;2023-08-06T03:27:20;4.10;;;2.83;;
5682;SDS011;2864;49.220;8.654;2023-08-06T03:29:48;5.03;;;2.57;;
5682;SDS011;2864;49.220;8.654;2023-08-06T03:32:15;7.10;;;2.60;;
5682;SDS011;2864;49.220;8.654;2023-08-06T03:34:40;3.40;;;2.67;;
5682;SDS011;2864;49.220;8.654;2023-08-06T03:37:06;4.97;;;2.47;;
5682;SDS011;2864;49.220;8.654;2023-08-06T03:39:31;6.40;;;2.60;;
5682;SDS011;2864;49.220;8.654;2023-08-06T03:41:57;3.03;;;2.37;;
5682;SDS011;2864;49.220;8.654;2023-08-06T03:44:22;5.73;;;2.40;;
5682;SDS011;2864;49.220;8.654;2023-08-06T03:46:48;3.10;;;2.13;;
5682;SDS011;2864;49.220;8.654;2023-08-06T03:49:13;2.53;;;2.00;;
5682;SDS011;2864;49.220;8.654;2023-08-06T03:51:39;3.27;;;2.47;;
5682;SDS011;2864;49.220;8.654;2023-08-06T03:54:04;3.40;;;2.00;;
5682;SDS011;2864;49.220;8.654;2023-08-06T03:56:30;3.97;;;2.20;;
5682;SDS011;2864;49.220;8.654;2023-08-06T03:58:56;4.97;;;2.23;;
5682;SDS011;2864;49.220;8.654;2023-08-06T04:01:21;3.30;;;1.87;;
5682;SDS011;2864;49.220;8.654;2023-08-06T04:03:47;4.17;;;2.23;;
5682;SDS011;2864;49.220;8.654;2023-08-06T04:06:12;8.23;;;2.13;;
5682;SDS011;2864;49.220;8.654;2023-08-06T04:08:38;3.47;;;2.00;;
5682;SDS011;2864;49.220;8.654;2023-08-06T04:11:03;3.90;;;1.80;;
5682;SDS011;2864;49.220;8.654;2023-08-06T04:13:29;4.67;;;1.90;;
5682;SDS011;2864;49.220;8.654;2023-08-06T04:15:54;4.03;;;1.87;;
5682;SDS011;2864;49.220;8.654;2023-08-06T04:18:20;4.10;;;1.93;;
5682;SDS011;2864;49.220;8.654;2023-08-06T04:20:46;4.27;;;1.73;;
5682;SDS011;2864;49.220;8.654;2023-08-06T04:23:14;4.27;;;1.83;;
5682;SDS011;2864;49.220;8.654;2023-08-06T04:25:40;4.83;;;1.83;;
5682;SDS011;2864;49.220;8.654;2023-08-06T04:28:06;5.00;;;2.17;;
5682;SDS011;2864;49.220;8.654;2023-08-06T04:30:32;3.70;;;1.93;;
5682;SDS011;2864;49.220;8.654;2023-08-06T04:32:57;4.60;;;1.70;;
5682;SDS011;2864;49.220;8.654;2023-08-06T04:35:23;5.50;;;2.13;;
5682;SDS011;2864;49.220;8.654;2023-08-06T04:37:49;4.43;;;1.90;;
5682;SDS011;2864;49.220;8.654;2023-08-06T04:40:14;4.20;;;1.60;;
5682;SDS011;2864;49.220;8.654;2023-08-06T04:42:40;5.10;;;1.90;;
5682;SDS011;2864;49.220;8.654;2023-08-06T04:45:05;7.77;;;1.90;;
5682;SDS011;2864;49.220;8.654;2023-08-06T04:47:31;7.23;;;2.03;;
5682;SDS011;2864;49.220;8.654;2023-08-06T04:49:57;4.77;;;1.70;;
5682;SDS011;2864;49.220;8.654;2023-08-06T04:52:22;5.20;;;1.90;;
5682;SDS011;2864;49.220;8.654;2023-08-06T04:54:48;4.47;;;1.80;;
5682;SDS011;2864;49.220;8.654;2023-08-06T04:57:13;4.97;;;1.60;;
5682;SDS011;2864;49.220;8.654;2023-08-06T04:59:39;3.10;;;1.50;;
5682;SDS011;2864;49.220;8.654;2023-08-06T05:02:05;6.83;;;2.10;;
5682;SDS011;2864;49.220;8.654;2023-08-06T05:04:30;4.67;;;1.40;;
5682;SDS011;2864;49.220;8.654;2023-08-06T05:06:56;5.23;;;1.80;;
5682;SDS011;2864;49.220;8.654;2023-08-06T05:09:21;5.83;;;1.60;;
5682;SDS011;2864;49.220;8.654;2023-08-06T05:11:47;3.97;;;1.70;;
5682;SDS011;2864;49.220;8.654;2023-08-06T05:14:13;4.13;;;1.60;;
5682;SDS011;2864;49.220;8.654;2023-08-06T05:16:38;5.20;;;1.60;;
5682;SDS011;2864;49.220;8.654;2023-08-06T05:19:04;6.23;;;1.77;;
5682;SDS011;2864;49.220;8.654;2023-08-06T05:21:29;4.73;;;1.70;;
5682;SDS011;2864;49.220;8.654;2023-08-06T05:23:55;4.17;;;1.70;;
5682;SDS011;2864;49.220;8.654;2023-08-06T05:26:21;4.53;;;1.70;;
5682;SDS011;2864;49.220;8.654;2023-08-06T05:28:46;3.63;;;1.60;;
5682;SDS011;2864;49.220;8.654;2023-08-06T05:31:12;6.67;;;2.37;;
5682;SDS011;2864;49.220;8.654;2023-08-06T05:33:38;4.83;;;1.80;;
5682;SDS011;2864;49.220;8.654;2023-08-06T05:36:03;1.77;;;1.50;;
5682;SDS011;2864;49.220;8.654;2023-08-06T05:38:29;3.07;;;1.70;;
5682;SDS011;2864;49.220;8.654;2023-08-06T05:40:55;3.97;;;1.43;;
5682;SDS011;2864;49.220;8.654;2023-08-06T05:43:21;3.63;;;1.70;;
5682;SDS011;2864;49.220;8.654;2023-08-06T05:45:48;2.93;;;1.60;;
5682;SDS011;2864;49.220;8.654;2023-08-06T05:48:15;6.73;;;1.90;;
5682;SDS011;2864;49.220;8.654;2023-08-06T05:50:40;5.60;;;1.70;;
5682;SDS011;2864;49.220;8.654;2023-08-06T05:53:06;3.97;;;1.97;;
5682;SDS011;2864;49.220;8.654;2023-08-06T05:55:32;4.17;;;1.30;;
5682;SDS011;2864;49.220;8.654;2023-08-06T05:57:58;3.40;;;1.73;;
5682;SDS011;2864;49.220;8.654;2023-08-06T06:00:24;4.47;;;1.50;;
5682;SDS011;2864;49.220;8.654;2023-08-06T06:02:49;4.60;;;1.90;;
5682;SDS011;2864;49.220;8.654;2023-08-06T06:05:15;3.27;;;1.67;;
5682;SDS011;2864;49.220;8.654;2023-08-06T06:07:41;3.00;;;1.40;;
5682;SDS011;2864;49.220;8.654;2023-08-06T06:10:06;3.67;;;1.40;;
5682;SDS011;2864;49.220;8.654;2023-08-06T06:12:32;4.10;;;1.37;;
5682;SDS011;2864;49.220;8.654;2023-08-06T06:14:58;4.63;;;1.97;;
5682;SDS011;2864;49.220;8.654;2023-08-06T06:17:25;2.80;;;1.30;;
5682;SDS011;2864;49.220;8.654;2023-08-06T06:19:51;1.53;;;1.40;;
5682;SDS011;2864;49.220;8.654;2023-08-06T06:22:17;3.17;;;1.40;;
5682;SDS011;2864;49.220;8.654;2023-08-06T06:24:42;2.53;;;1.30;;
5682;SDS011;2864;49.220;8.654;2023-08-06T06:27:08;3.77;;;1.50;;
5682;SDS011;2864;49.220;8.654;2023-08-06T06:29:33;2.40;;;1.40;;
5682;SDS011;2864;49.220;8.654;2023-08-06T06:31:59;4.20;;;1.60;;
5682;SDS011;2864;49.220;8.654;2023-08-06T06:34:24;5.43;;;1.53;;
5682;SDS011;2864;49.220;8.654;2023-08-06T06:36:50;2.07;;;1.40;;
5682;SDS011;2864;49.220;8.654;2023-08-06T06:39:15;2.47;;;1.30;;
5682;SDS011;2864;49.220;8.654;2023-08-06T06:41:42;2.03;;;1.40;;
5682;SDS011;2864;49.220;8.654;2023-08-06T06:44:09;3.37;;;1.40;;
5682;SDS011;2864;49.220;8.654;2023-08-06T06:46:34;3.67;;;1.30;;
5682;SDS011;2864;49.220;8.654;2023-08-06T06:49:00;3.20;;;1.40;;
5682;SDS011;2864;49.220;8.654;2023-08-06T06:51:25;2.57;;;1.33;;
5682;SDS011;2864;49.220;8.654;2023-08-06T06:53:51;3.10;;;1.30;;
5682;SDS011;2864;49.220;8.654;2023-08-06T06:56:16;3.97;;;1.50;;
5682;SDS011;2864;49.220;8.654;2023-08-06T06:58:42;3.87;;;1.77;;
5682;SDS011;2864;49.220;8.654;2023-08-06T07:01:08;3.17;;;1.40;;
5682;SDS011;2864;49.220;8.654;2023-08-06T07:03:35;5.20;;;1.70;;
5682;SDS011;2864;49.220;8.654;2023-08-06T07:06:01;5.47;;;1.40;;
5682;SDS011;2864;49.220;8.654;2023-08-06T07:08:26;2.93;;;1.40;;
5682;SDS011;2864;49.220;8.654;2023-08-06T07:11:02;2.33;;;1.20;;
5682;SDS011;2864;49.220;8.654;2023-08-06T07:13:29;3.40;;;1.50;;
5682;SDS011;2864;49.220;8.654;2023-08-06T07:15:55;3.67;;;1.50;;
5682;SDS011;2864;49.220;8.654;2023-08-06T07:18:21;2.13;;;1.50;;
5682;SDS011;2864;49.220;8.654;2023-08-06T07:20:50;3.30;;;1.90;;
5682;SDS011;2864;49.220;8.654;2023-08-06T07:23:16;1.70;;;1.37;;
5682;SDS011;2864;49.220;8.654;2023-08-06T07:25:43;4.23;;;1.30;;
5682;SDS011;2864;49.220;8.654;2023-08-06T07:28:09;3.60;;;1.60;;
5682;SDS011;2864;49.220;8.654;2023-08-06T07:30:38;1.67;;;1.33;;
5682;SDS011;2864;49.220;8.654;2023-08-06T07:33:04;3.53;;;1.40;;
5682;SDS011;2864;49.220;8.654;2023-08-06T07:35:30;1.63;;;1.10;;
5682;SDS011;2864;49.220;8.654;2023-08-06T07:37:56;1.20;;;1.10;;
5682;SDS011;2864;49.220;8.654;2023-08-06T07:40:21;1.60;;;1.20;;
5682;SDS011;2864;49.220;8.654;2023-08-06T07:42:47;3.60;;;1.30;;
5682;SDS011;2864;49.220;8.654;2023-08-06T07:45:13;2.03;;;1.17;;
5682;SDS011;2864;49.220;8.654;2023-08-06T07:47:39;2.83;;;1.10;;
5682;SDS011;2864;49.220;8.654;2023-08-06T07:50:05;3.30;;;1.17;;
5682;SDS011;2864;49.220;8.654;2023-08-06T07:52:31;1.43;;;1.00;;
5682;SDS011;2864;49.220;8.654;2023-08-06T07:54:56;1.37;;;1.10;;
5682;SDS011;2864;49.220;8.654;2023-08-06T07:57:22;2.33;;;1.20;;
5682;SDS011;2864;49.220;8.654;2023-08-06T07:59:47;1.07;;;1.00;;
5682;SDS011;2864;49.220;8.654;2023-08-06T08:02:13;1.20;;;1.10;;
5682;SDS011;2864;49.220;8.654;2023-08-06T08:04:39;2.80;;;1.10;;
5682;SDS011;2864;49.220;8.654;2023-08-06T08:07:04;4.73;;;1.00;;
5682;SDS011;2864;49.220;8.654;2023-08-06T08:09:30;3.63;;;1.07;;
5682;SDS011;2864;49.220;8.654;2023-08-06T08:11:55;2.70;;;1.10;;
5682;SDS011;2864;49.220;8.654;2023-08-06T08:14:21;2.00;;;1.03;;
5682;SDS011;2864;49.220;8.654;2023-08-06T08:16:49;1.13;;;1.00;;
5682;SDS011;2864;49.220;8.654;2023-08-06T08:19:15;1.63;;;0.93;;
5682;SDS011;2864;49.220;8.654;2023-08-06T08:21:40;1.60;;;1.00;;
5682;SDS011;2864;49.220;8.654;2023-08-06T08:24:06;1.10;;;0.97;;
5682;SDS011;2864;49.220;8.654;2023-08-06T08:26:32;2.33;;;1.20;;
5682;SDS011;2864;49.220;8.654;2023-08-06T08:28:58;1.13;;;1.00;;
5682;SDS011;2864;49.220;8.654;2023-08-06T08:31:23;1.23;;;1.00;;
5682;SDS011;2864;49.220;8.654;2023-08-06T08:33:49;1.37;;;1.10;;
5682;SDS011;2864;49.220;8.654;2023-08-06T08:36:15;1.07;;;1.00;;
5682;SDS011;2864;49.220;8.654;2023-08-06T08:38:41;1.87;;;1.00;;
5682;SDS011;2864;49.220;8.654;2023-08-06T08:41:06;1.20;;;1.20;;
5682;SDS011;2864;49.220;8.654;2023-08-06T08:43:34;1.23;;;1.00;;
5682;SDS011;2864;49.220;8.654;2023-08-06T08:46:01;1.13;;;1.00;;
5682;SDS011;2864;49.220;8.654;2023-08-06T08:48:29;1.30;;;1.20;;
5682;SDS011;2864;49.220;8.654;2023-08-06T08:50:54;0.90;;;0.80;;
5682;SDS011;2864;49.220;8.654;2023-08-06T08:53:21;0.90;;;0.90;;
5682;SDS011;2864;49.220;8.654;2023-08-06T08:55:47;0.77;;;0.77;;
5682;SDS011;2864;49.220;8.654;2023-08-06T08:58:14;1.70;;;0.90;;
5682;SDS011;2864;49.220;8.654;2023-08-06T09:00:41;2.50;;;0.97;;
5682;SDS011;2864;49.220;8.654;2023-08-06T09:03:07;1.20;;;1.00;;
5682;SDS011;2864;49.220;8.654;2023-08-06T09:05:33;1.00;;;0.90;;
5682;SDS011;2864;49.220;8.654;2023-08-06T09:08:03;2.07;;;0.87;;
5682;SDS011;2864;49.220;8.654;2023-08-06T09:10:29;1.13;;;1.07;;
5682;SDS011;2864;49.220;8.654;2023-08-06T09:12:55;0.90;;;0.90;;
5682;SDS011;2864;49.220;8.654;2023-08-06T09:15:25;1.17;;;0.93;;
5682;SDS011;2864;49.220;8.654;2023-08-06T09:17:52;2.00;;;1.00;;
5682;SDS011;2864;49.220;8.654;2023-08-06T09:20:18;2.20;;;1.07;;
5682;SDS011;2864;49.220;8.654;2023-08-06T09:22:43;2.90;;;1.00;;
5682;SDS011;2864;49.220;8.654;2023-08-06T09:25:10;1.10;;;1.00;;
5682;SDS011;2864;49.220;8.654;2023-08-06T09:27:38;3.03;;;0.93;;
5682;SDS011;2864;49.220;8.654;2023-08-06T09:30:08;1.53;;;1.10;;
5682;SDS011;2864;49.220;8.654;2023-08-06T09:32:46;1.30;;;1.00;;
5682;SDS011;2864;49.220;8.654;2023-08-06T09:35:16;0.90;;;0.90;;
5682;SDS011;2864;49.220;8.654;2023-08-06T09:37:42;0.97;;;0.97;;
5682;SDS011;2864;49.220;8.654;2023-08-06T09:40:23;2.27;;;0.90;;
5682;SDS011;2864;49.220;8.654;2023-08-06T09:42:50;1.10;;;1.00;;
5682;SDS011;2864;49.220;8.654;2023-08-06T09:45:16;0.70;;;0.70;;
5682;SDS011;2864;49.220;8.654;2023-08-06T09:47:42;1.30;;;0.80;;
5682;SDS011;2864;49.220;8.654;2023-08-06T09:50:19;2.03;;;0.90;;
5682;SDS011;2864;49.220;8.654;2023-08-06T09:52:46;1.50;;;0.87;;
5682;SDS011;2864;49.220;8.654;2023-08-06T09:55:16;0.90;;;0.90;;
5682;SDS011;2864;49.220;8.654;2023-08-06T09:57:42;1.93;;;0.93;;
5682;SDS011;2864;49.220;8.654;2023-08-06T10:00:09;1.63;;;1.40;;
5682;SDS011;2864;49.220;8.654;2023-08-06T10:02:39;0.90;;;0.90;;
5682;SDS011;2864;49.220;8.654;2023-08-06T10:05:06;2.00;;;0.90;;
5682;SDS011;2864;49.220;8.654;2023-08-06T10:07:33;0.90;;;0.90;;
5682;SDS011;2864;49.220;8.654;2023-08-06T10:09:59;1.30;;;1.03;;
5682;SDS011;2864;49.220;8.654;2023-08-06T10:12:25;1.83;;;0.90;;
5682;SDS011;2864;49.220;8.654;2023-08-06T10:14:57;2.33;;;1.03;;
5682;SDS011;2864;49.220;8.654;2023-08-06T10:17:26;1.10;;;1.00;;
5682;SDS011;2864;49.220;8.654;2023-08-06T10:19:52;1.10;;;1.00;;
5682;SDS011;2864;49.220;8.654;2023-08-06T10:22:20;0.90;;;0.90;;
5682;SDS011;2864;49.220;8.654;2023-08-06T10:24:47;0.90;;;0.90;;
5682;SDS011;2864;49.220;8.654;2023-08-06T10:27:21;1.00;;;1.00;;
5682;SDS011;2864;49.220;8.654;2023-08-06T10:29:48;1.33;;;1.00;;
5682;SDS011;2864;49.220;8.654;2023-08-06T10:32:15;1.10;;;1.00;;
5682;SDS011;2864;49.220;8.654;2023-08-06T10:34:53;1.20;;;1.10;;
5682;SDS011;2864;49.220;8.654;2023-08-06T10:37:23;1.57;;;0.90;;
5682;SDS011;2864;49.220;8.654;2023-08-06T10:40:01;1.27;;;0.90;;
5682;SDS011;2864;49.220;8.654;2023-08-06T10:42:27;1.00;;;1.00;;
5682;SDS011;2864;49.220;8.654;2023-08-06T10:45:13;0.90;;;0.90;;
5682;SDS011;2864;49.220;8.654;2023-08-06T10:47:40;3.60;;;1.03;;
5682;SDS011;2864;49.220;8.654;2023-08-06T10:50:16;1.40;;;1.30;;
5682;SDS011;2864;49.220;8.654;2023-08-06T10:52:43;1.40;;;1.30;;
5682;SDS011;2864;49.220;8.654;2023-08-06T10:55:10;1.90;;;1.30;;
5682;SDS011;2864;49.220;8.654;2023-08-06T10:57:35;1.13;;;1.10;;
5682;SDS011;2864;49.220;8.654;2023-08-06T11:00:03;2.73;;;1.40;;
5682;SDS011;2864;49.220;8.654;2023-08-06T11:02:33;1.73;;;1.50;;
5682;SDS011;2864;49.220;8.654;2023-08-06T11:05:04;1.57;;;1.40;;
5682;SDS011;2864;49.220;8.654;2023-08-06T11:07:34;1.60;;;1.50;;
5682;SDS011;2864;49.220;8.654;2023-08-06T11:10:03;2.47;;;1.67;;
5682;SDS011;2864;49.220;8.654;2023-08-06T11:12:34;1.90;;;1.60;;
5682;SDS011;2864;49.220;8.654;2023-08-06T11:15:00;2.03;;;1.67;;
5682;SDS011;2864;49.220;8.654;2023-08-06T11:17:27;1.70;;;1.60;;
5682;SDS011;2864;49.220;8.654;2023-08-06T11:19:53;3.63;;;2.07;;
5682;SDS011;2864;49.220;8.654;2023-08-06T11:22:20;4.23;;;1.80;;
5682;SDS011;2864;49.220;8.654;2023-08-06T11:24:46;3.03;;;1.90;;
5682;SDS011;2864;49.220;8.654;2023-08-06T11:27:12;3.43;;;2.30;;
5682;SDS011;2864;49.220;8.654;2023-08-06T11:29:39;2.63;;;2.03;;
5682;SDS011;2864;49.220;8.654;2023-08-06T11:32:08;3.27;;;2.17;;
5682;SDS011;2864;49.220;8.654;2023-08-06T11:34:35;3.87;;;2.30;;
5682;SDS011;2864;49.220;8.654;2023-08-06T11:37:02;2.80;;;2.20;;
5682;SDS011;2864;49.220;8.654;2023-08-06T11:39:30;3.20;;;2.27;;
5682;SDS011;2864;49.220;8.654;2023-08-06T11:41:57;2.27;;;2.00;;
5682;SDS011;2864;49.220;8.654;2023-08-06T11:44:25;4.07;;;2.20;;
5682;SDS011;2864;49.220;8.654;2023-08-06T11:46:57;3.17;;;2.40;;
5682;SDS011;2864;49.220;8.654;2023-08-06T11:49:38;2.70;;;2.00;;
5682;SDS011;2864;49.220;8.654;2023-08-06T11:52:09;2.73;;;2.10;;
5682;SDS011;2864;49.220;8.654;2023-08-06T11:54:37;3.43;;;2.27;;
5682;SDS011;2864;49.220;8.654;2023-08-06T11:57:03;4.37;;;2.30;;
5682;SDS011;2864;49.220;8.654;2023-08-06T11:59:31;2.40;;;2.10;;
5682;SDS011;2864;49.220;8.654;2023-08-06T12:01:57;2.57;;;2.37;;
5682;SDS011;2864;49.220;8.654;2023-08-06T12:04:25;4.90;;;2.30;;
5682;SDS011;2864;49.220;8.654;2023-08-06T12:06:50;3.57;;;2.13;;
5682;SDS011;2864;49.220;8.654;2023-08-06T12:09:16;3.07;;;2.30;;
5682;SDS011;2864;49.220;8.654;2023-08-06T12:11:42;2.80;;;2.17;;
5682;SDS011;2864;49.220;8.654;2023-08-06T12:14:07;3.87;;;2.17;;
5682;SDS011;2864;49.220;8.654;2023-08-06T12:16:33;3.23;;;2.20;;
5682;SDS011;2864;49.220;8.654;2023-08-06T12:18:59;2.93;;;2.00;;
5682;SDS011;2864;49.220;8.654;2023-08-06T12:21:24;2.60;;;2.37;;
5682;SDS011;2864;49.220;8.654;2023-08-06T12:23:50;5.43;;;2.40;;
5682;SDS011;2864;49.220;8.654;2023-08-06T12:26:15;3.03;;;2.20;;
5682;SDS011;2864;49.220;8.654;2023-08-06T12:28:41;2.50;;;2.30;;
5682;SDS011;2864;49.220;8.654;2023-08-06T12:31:06;2.50;;;2.27;;
5682;SDS011;2864;49.220;8.654;2023-08-06T12:33:32;2.23;;;2.03;;
5682;SDS011;2864;49.220;8.654;2023-08-06T12:35:57;5.97;;;2.30;;
5682;SDS011;2864;49.220;8.654;2023-08-06T12:38:23;5.10;;;2.43;;
5682;SDS011;2864;49.220;8.654;2023-08-06T12:40:49;3.80;;;2.23;;
5682;SDS011;2864;49.220;8.654;2023-08-06T12:43:14;4.97;;;2.50;;
5682;SDS011;2864;49.220;8.654;2023-08-06T12:45:40;4.27;;;2.70;;
5682;SDS011;2864;49.220;8.654;2023-08-06T12:48:06;3.57;;;2.30;;
5682;SDS011;2864;49.220;8.654;2023-08-06T12:50:31;8.03;;;2.50;;
5682;SDS011;2864;49.220;8.654;2023-08-06T12:53:00;3.53;;;2.50;;
5682;SDS011;2864;49.220;8.654;2023-08-06T12:55:26;2.73;;;2.20;;
5682;SDS011;2864;49.220;8.654;2023-08-06T12:57:51;3.10;;;2.20;;
5682;SDS011;2864;49.220;8.654;2023-08-06T13:00:19;2.33;;;2.00;;
5682;SDS011;2864;49.220;8.654;2023-08-06T13:02:44;3.60;;;2.13;;
5682;SDS011;2864;49.220;8.654;2023-08-06T13:05:10;3.73;;;2.50;;
5682;SDS011;2864;49.220;8.654;2023-08-06T13:07:35;3.93;;;2.20;;
5682;SDS011;2864;49.220;8.654;2023-08-06T13:10:01;4.67;;;2.20;;
5682;SDS011;2864;49.220;8.654;2023-08-06T13:12:26;2.93;;;2.37;;
5682;SDS011;2864;49.220;8.654;2023-08-06T13:14:52;3.17;;;2.30;;
5682;SDS011;2864;49.220;8.654;2023-08-06T13:17:18;3.53;;;2.30;;
5682;SDS011;2864;49.220;8.654;2023-08-06T13:19:43;4.97;;;2.57;;
5682;SDS011;2864;49.220;8.654;2023-08-06T13:22:09;7.63;;;2.37;;
5682;SDS011;2864;49.220;8.654;2023-08-06T13:24:35;4.60;;;2.13;;
5682;SDS011;2864;49.220;8.654;2023-08-06T13:27:01;3.67;;;2.10;;
5682;SDS011;2864;49.220;8.654;2023-08-06T13:29:27;4.77;;;2.23;;
5682;SDS011;2864;49.220;8.654;2023-08-06T13:31:52;2.37;;;2.00;;
5682;SDS011;2864;49.220;8.654;2023-08-06T13:34:18;5.27;;;2.30;;
5682;SDS011;2864;49.220;8.654;2023-08-06T13:36:44;4.27;;;2.33;;
5682;SDS011;2864;49.220;8.654;2023-08-06T13:39:10;3.30;;;1.90;;
5682;SDS011;2864;49.220;8.654;2023-08-06T13:41:37;2.87;;;2.10;;
5682;SDS011;2864;49.220;8.654;2023-08-06T13:44:03;3.97;;;2.40;;
5682;SDS011;2864;49.220;8.654;2023-08-06T13:46:29;3.77;;;2.43;;
5682;SDS011;2864;49.220;8.654;2023-08-06T13:48:54;4.17;;;2.23;;
5682;SDS011;2864;49.220;8.654;2023-08-06T13:51:20;2.70;;;2.20;;
5682;SDS011;2864;49.220;8.654;2023-08-06T13:53:46;2.57;;;1.93;;
5682;SDS011;2864;49.220;8.654;2023-08-06T13:56:11;4.33;;;2.30;;
5682;SDS011;2864;49.220;8.654;2023-08-06T13:58:37;2.37;;;2.10;;
5682;SDS011;2864;49.220;8.654;2023-08-06T14:01:03;5.17;;;1.93;;
5682;SDS011;2864;49.220;8.654;2023-08-06T14:03:29;2.30;;;1.90;;
5682;SDS011;2864;49.220;8.654;2023-08-06T14:05:55;4.03;;;1.60;;
5682;SDS011;2864;49.220;8.654;2023-08-06T14:08:21;6.13;;;2.23;;
5682;SDS011;2864;49.220;8.654;2023-08-06T14:10:48;2.93;;;1.70;;
5682;SDS011;2864;49.220;8.654;2023-08-06T14:13:14;3.63;;;2.03;;
5682;SDS011;2864;49.220;8.654;2023-08-06T14:15:39;4.87;;;1.90;;
5682;SDS011;2864;49.220;8.654;2023-08-06T14:18:05;3.70;;;1.80;;
5682;SDS011;2864;49.220;8.654;2023-08-06T14:20:34;2.93;;;1.83;;
5682;SDS011;2864;49.220;8.654;2023-08-06T14:23:00;2.17;;;1.67;;
5682;SDS011;2864;49.220;8.654;2023-08-06T14:25:26;2.07;;;1.50;;
5682;SDS011;2864;49.220;8.654;2023-08-06T14:27:52;4.13;;;2.20;;
5682;SDS011;2864;49.220;8.654;2023-08-06T14:30:17;2.37;;;1.80;;
5682;SDS011;2864;49.220;8.654;2023-08-06T14:32:43;1.53;;;1.40;;
5682;SDS011;2864;49.220;8.654;2023-08-06T14:35:09;1.60;;;1.50;;
5682;SDS011;2864;49.220;8.654;2023-08-06T14:37:34;1.47;;;1.30;;
5682;SDS011;2864;49.220;8.654;2023-08-06T14:40:00;1.60;;;1.50;;
5682;SDS011;2864;49.220;8.654;2023-08-06T14:42:29;2.57;;;1.40;;
5682;SDS011;2864;49.220;8.654;2023-08-06T14:44:54;2.37;;;1.63;;
5682;SDS011;2864;49.220;8.654;2023-08-06T14:47:20;2.30;;;1.47;;
5682;SDS011;2864;49.220;8.654;2023-08-06T14:49:47;2.53;;;1.60;;
5682;SDS011;2864;49.220;8.654;2023-08-06T14:52:14;1.43;;;1.30;;
5682;SDS011;2864;49.220;8.654;2023-08-06T14:54:40;2.80;;;1.60;;
5682;SDS011;2864;49.220;8.654;2023-08-06T14:57:05;4.93;;;1.70;;
5682;SDS011;2864;49.220;8.654;2023-08-06T14:59:32;3.13;;;1.70;;
5682;SDS011;2864;49.220;8.654;2023-08-06T15:01:57;2.17;;;1.63;;
5682;SDS011;2864;49.220;8.654;2023-08-06T15:04:23;1.90;;;1.63;;
5682;SDS011;2864;49.220;8.654;2023-08-06T15:06:48;2.73;;;1.60;;
5682;SDS011;2864;49.220;8.654;2023-08-06T15:09:14;3.23;;;1.80;;
5682;SDS011;2864;49.220;8.654;2023-08-06T15:11:40;2.27;;;2.00;;
5682;SDS011;2864;49.220;8.654;2023-08-06T15:14:05;2.33;;;1.90;;
5682;SDS011;2864;49.220;8.654;2023-08-06T15:16:32;3.17;;;1.80;;